Time;durP1;ratioP1;P1;durP2;ratioP2;P2;SDS_P1;SDS_P2;PMS_P1;PMS_P2;Temp;Humidity;BMP_temperature;BMP_pressure;BME280_temperature;BME280_humidity;BME280_pressure;Samples;Min_cycle;Max_cycle;Signal;HPM_P1;HPM_P2
2021/11/08 00:00:33;;;;;;;4.63;2.08;;;;;;;;;;4825576;29;20046;-87
2021/11/08 00:03:01;;;;;;;6.20;2.67;;;;;;;;;;4825540;29;20046;-88
2021/11/08 00:05:28;;;;;;;6.20;2.58;;;;;;;;;;4824361;29;20072;-89
2021/11/08 00:08:00;;;;;;;4.97;2.10;;;;;;;;;;4824242;29;20069;-87
2021/11/08 00:10:32;;;;;;;5.60;2.50;;;;;;;;;;4824548;29;20034;-89
2021/11/08 00:13:00;;;;;;;4.65;2.53;;;;;;;;;;4825337;29;20056;-88
2021/11/08 00:15:35;;;;;;;4.80;2.33;;;;;;;;;;4823895;29;20038;-84
2021/11/08 00:18:07;;;;;;;5.43;2.95;;;;;;;;;;4824107;29;20042;-89
2021/11/08 00:20:55;;;;;;;4.30;2.35;;;;;;;;;;4824085;29;20463;-87
2021/11/08 00:23:20;;;;;;;3.90;2.28;;;;;;;;;;4824837;29;20079;-87
2021/11/08 00:25:47;;;;;;;6.43;2.60;;;;;;;;;;4824403;29;20042;-87
2021/11/08 00:28:15;;;;;;;5.20;2.53;;;;;;;;;;4808637;29;20082;-88
2021/11/08 00:30:42;;;;;;;5.50;2.67;;;;;;;;;;4823832;29;20054;-88
2021/11/08 00:33:09;;;;;;;6.95;2.78;;;;;;;;;;4823700;29;20030;-84
2021/11/08 00:35:37;;;;;;;6.07;2.78;;;;;;;;;;4824060;29;20034;-89
2021/11/08 00:38:04;;;;;;;6.03;2.65;;;;;;;;;;4824961;29;20037;-89
2021/11/08 00:40:31;;;;;;;8.45;2.45;;;;;;;;;;4824027;29;20037;-87
2021/11/08 00:42:57;;;;;;;7.53;2.90;;;;;;;;;;4824987;29;20088;-87
2021/11/08 00:45:24;;;;;;;7.60;2.72;;;;;;;;;;4823766;29;20083;-88
2021/11/08 00:47:51;;;;;;;6.10;2.45;;;;;;;;;;4824788;29;20030;-88
2021/11/08 00:50:18;;;;;;;6.28;2.70;;;;;;;;;;4824604;29;20026;-87
2021/11/08 00:52:45;;;;;;;5.72;2.70;;;;;;;;;;4823546;29;20038;-85
2021/11/08 00:55:11;;;;;;;5.65;2.67;;;;;;;;;;4823716;29;20033;-85
2021/11/08 00:57:39;;;;;;;4.93;2.03;;;;;;;;;;4823576;29;20125;-87
2021/11/08 01:00:06;;;;;;;4.75;1.98;;;;;;;;;;4823756;29;20125;-84
2021/11/08 01:02:33;;;;;;;4.40;2.15;;;;;;;;;;4824610;29;20038;-87
2021/11/08 01:05:00;;;;;;;3.88;2.00;;;;;;;;;;4823422;29;20038;-88
2021/11/08 01:07:27;;;;;;;5.35;2.28;;;;;;;;;;4824451;29;20029;-87
2021/11/08 01:09:54;;;;;;;4.90;2.05;;;;;;;;;;4823543;29;20038;-88
2021/11/08 01:12:23;;;;;;;4.63;2.53;;;;;;;;;;4823410;29;20022;-87
2021/11/08 01:14:50;;;;;;;5.78;2.55;;;;;;;;;;4823436;29;20502;-88
2021/11/08 01:17:17;;;;;;;4.70;2.30;;;;;;;;;;4823277;29;20063;-87
2021/11/08 01:19:43;;;;;;;4.53;2.33;;;;;;;;;;4824490;29;20087;-88
2021/11/08 01:22:20;;;;;;;5.80;2.65;;;;;;;;;;4823064;29;20027;-88
2021/11/08 01:24:55;;;;;;;4.45;2.42;;;;;;;;;;4823593;29;20066;-86
2021/11/08 01:27:25;;;;;;;5.93;2.88;;;;;;;;;;4824487;29;20047;-89
2021/11/08 01:29:51;;;;;;;5.53;2.80;;;;;;;;;;4827959;29;20026;-88
2021/11/08 01:32:17;;;;;;;4.72;2.50;;;;;;;;;;4826866;29;20058;-84
2021/11/08 01:34:44;;;;;;;5.78;2.83;;;;;;;;;;4826840;29;20030;-88
2021/11/08 01:37:11;;;;;;;7.00;3.42;;;;;;;;;;4827900;29;20030;-85
2021/11/08 01:39:38;;;;;;;10.07;3.90;;;;;;;;;;4826670;29;20038;-87
2021/11/08 01:42:06;;;;;;;8.52;3.53;;;;;;;;;;4826569;29;20416;-88
2021/11/08 01:44:32;;;;;;;6.53;3.10;;;;;;;;;;4826406;29;20061;-88
2021/11/08 01:47:01;;;;;;;5.47;3.00;;;;;;;;;;4827857;29;20484;-86
2021/11/08 01:49:27;;;;;;;7.35;3.28;;;;;;;;;;4827745;29;20050;-85
2021/11/08 01:51:54;;;;;;;6.78;3.38;;;;;;;;;;4826206;29;20484;-88
2021/11/08 01:54:24;;;;;;;7.03;3.63;;;;;;;;;;4827538;29;20062;-88
2021/11/08 01:56:52;;;;;;;7.43;3.85;;;;;;;;;;4826478;29;20395;-88
2021/11/08 01:59:18;;;;;;;8.45;3.17;;;;;;;;;;4826225;29;20090;-83
2021/11/08 02:01:44;;;;;;;7.20;3.65;;;;;;;;;;4826325;29;20030;-88
2021/11/08 02:04:11;;;;;;;6.30;3.58;;;;;;;;;;4827373;29;20080;-88
2021/11/08 02:06:38;;;;;;;8.57;3.83;;;;;;;;;;4827157;29;20030;-88
2021/11/08 02:09:05;;;;;;;8.13;4.00;;;;;;;;;;4826206;29;20126;-85
2021/11/08 02:11:33;;;;;;;7.60;3.70;;;;;;;;;;4827293;29;20057;-88
2021/11/08 02:14:00;;;;;;;7.57;3.90;;;;;;;;;;4826174;29;20030;-87
2021/11/08 02:16:26;;;;;;;8.18;4.18;;;;;;;;;;4825845;29;20081;-83
2021/11/08 02:18:52;;;;;;;8.52;3.78;;;;;;;;;;4825941;29;20038;-88
2021/11/08 02:21:19;;;;;;;7.38;3.97;;;;;;;;;;4825908;29;20349;-88
2021/11/08 02:23:48;;;;;;;7.15;3.97;;;;;;;;;;4826063;29;20038;-87
2021/11/08 02:26:16;;;;;;;7.05;3.72;;;;;;;;;;4825925;29;20039;-88
2021/11/08 02:28:44;;;;;;;8.68;3.83;;;;;;;;;;4825829;29;20504;-88
2021/11/08 02:31:14;;;;;;;8.30;3.88;;;;;;;;;;4826048;29;20037;-88
2021/11/08 02:33:41;;;;;;;8.68;4.03;;;;;;;;;;4825671;29;20041;-88
2021/11/08 02:36:07;;;;;;;6.80;3.55;;;;;;;;;;4827058;29;20031;-88
2021/11/08 02:38:37;;;;;;;7.45;3.40;;;;;;;;;;4825430;29;20046;-85
2021/11/08 02:41:04;;;;;;;7.20;3.75;;;;;;;;;;4826084;29;20522;-88
2021/11/08 02:43:31;;;;;;;7.57;3.72;;;;;;;;;;4826736;29;20064;-88
2021/11/08 02:48:30;;;;;;;7.28;3.92;;;;;;;;;;4826644;29;20031;-85
2021/11/08 02:51:04;;;;;;;7.60;3.40;;;;;;;;;;4825500;29;20496;-85
2021/11/08 02:53:32;;;;;;;7.68;3.97;;;;;;;;;;4825636;29;20514;-86
2021/11/08 02:55:58;;;;;;;6.60;3.42;;;;;;;;;;4825182;29;20034;-83
2021/11/08 02:58:27;;;;;;;6.18;3.05;;;;;;;;;;4825488;29;20516;-87
2021/11/08 03:00:55;;;;;;;5.45;3.03;;;;;;;;;;4825418;29;20038;-89
2021/11/08 03:03:28;;;;;;;5.90;3.05;;;;;;;;;;4825542;29;20058;-87
2021/11/08 03:06:02;;;;;;;;;;;;;;;;;;4825864;29;20034;-85
2021/11/08 03:08:29;;;;;;;6.10;2.28;;;;;;;;;;4810132;29;19909;-87
2021/11/08 03:10:57;;;;;;;5.00;1.80;;;;;;;;;;4825145;29;20046;-88
2021/11/08 03:13:25;;;;;;;5.13;2.13;;;;;;;;;;4825310;29;20066;-89
2021/11/08 03:16:03;;;;;;;7.78;2.33;;;;;;;;;;4825294;29;20065;-88
2021/11/08 03:18:37;;;;;;;4.90;2.17;;;;;;;;;;4825122;29;20039;-88
2021/11/08 03:21:04;;;;;;;5.93;2.30;;;;;;;;;;4828710;29;20038;-86
2021/11/08 03:23:31;;;;;;;4.68;2.10;;;;;;;;;;4828156;29;20181;-86
2021/11/08 03:28:56;;;;;;;6.15;2.53;;;;;;;;;;4796485;29;20061;-87
2021/11/08 03:31:23;;;;;;;5.45;2.55;;;;;;;;;;4821964;29;20038;-88
2021/11/08 03:33:49;;;;;;;5.70;2.60;;;;;;;;;;4821960;29;20034;-88
2021/11/08 03:36:16;;;;;;;5.03;2.65;;;;;;;;;;4821817;29;20031;-83
2021/11/08 03:38:43;;;;;;;5.13;2.85;;;;;;;;;;4821676;29;20042;-87
2021/11/08 03:41:11;;;;;;;7.45;3.10;;;;;;;;;;4821616;29;20477;-87
2021/11/08 03:43:39;;;;;;;4.85;2.40;;;;;;;;;;4821682;29;20073;-84
2021/11/08 03:46:05;;;;;;;7.60;3.17;;;;;;;;;;4821654;29;20095;-87
2021/11/08 03:48:32;;;;;;;6.47;3.13;;;;;;;;;;4821708;29;20125;-87
2021/11/08 03:50:58;;;;;;;6.88;3.10;;;;;;;;;;4821199;29;20049;-85
2021/11/08 03:53:24;;;;;;;5.82;2.90;;;;;;;;;;4821161;29;20031;-85
2021/11/08 03:55:52;;;;;;;7.63;2.25;;;;;;;;;;4821495;29;20144;-88
2021/11/08 03:58:18;;;;;;;4.57;1.98;;;;;;;;;;4821110;29;20047;-87
2021/11/08 04:00:45;;;;;;;4.63;2.15;;;;;;;;;;4821495;29;20031;-86
2021/11/08 04:03:12;;;;;;;5.88;2.35;;;;;;;;;;4821287;29;20111;-83
2021/11/08 04:05:40;;;;;;;5.22;2.38;;;;;;;;;;4807195;29;20035;-87
2021/11/08 04:08:09;;;;;;;4.78;2.30;;;;;;;;;;4807074;29;20042;-84
2021/11/08 04:10:39;;;;;;;3.72;2.10;;;;;;;;;;4807144;29;20026;-85
2021/11/08 04:13:05;;;;;;;5.07;2.63;;;;;;;;;;4821415;29;20080;-83
2021/11/08 04:15:36;;;;;;;5.07;2.00;;;;;;;;;;4807168;29;20034;-87
2021/11/08 04:18:26;;;;;;;4.55;2.28;;;;;;;;;;4820851;29;20047;-83
2021/11/08 04:20:53;;;;;;;5.15;2.35;;;;;;;;;;4820542;29;20023;-84
2021/11/08 04:23:20;;;;;;;4.55;2.00;;;;;;;;;;4820786;29;20031;-83
2021/11/08 04:25:46;;;;;;;5.70;2.33;;;;;;;;;;4820852;29;20027;-87
2021/11/08 04:28:13;;;;;;;4.85;2.08;;;;;;;;;;4820785;29;20055;-87
2021/11/08 04:30:44;;;;;;;2.60;1.58;;;;;;;;;;4820882;29;20041;-87
2021/11/08 04:36:03;;;;;;;4.38;1.77;;;;;;;;;;4807087;29;20042;-86
2021/11/08 04:38:44;;;;;;;4.22;2.17;;;;;;;;;;4820876;29;20071;-88
2021/11/08 04:41:24;;;;;;;4.20;1.73;;;;;;;;;;4820817;29;20038;-85
2021/11/08 04:43:58;;;;;;;2.65;1.38;;;;;;;;;;4805630;29;20091;-85
2021/11/08 04:48:57;;;;;;;4.30;1.58;;;;;;;;;;4806843;29;19951;-87
2021/11/08 05:21:47;;;;;;;4.85;1.95;;;;;;;;;;4808123;29;20113;-83
2021/11/08 05:32:10;;;;;;;3.38;1.48;;;;;;;;;;4817457;29;20034;-84
2021/11/08 05:34:36;;;;;;;2.90;1.67;;;;;;;;;;4791220;29;20038;-88
2021/11/08 05:37:07;;;;;;;3.83;1.77;;;;;;;;;;4791052;29;20477;-87
2021/11/08 05:39:34;;;;;;;3.67;1.70;;;;;;;;;;4790973;29;20081;-89
2021/11/08 05:42:02;;;;;;;4.00;1.52;;;;;;;;;;4790889;29;20027;-87
2021/11/08 05:44:29;;;;;;;4.95;1.75;;;;;;;;;;4806897;29;20035;-86
2021/11/08 05:46:55;;;;;;;6.18;1.92;;;;;;;;;;4790834;29;20031;-93
2021/11/08 05:49:22;;;;;;;2.80;1.55;;;;;;;;;;4791218;29;20041;-88
2021/11/08 05:51:48;;;;;;;20.48;9.23;;;;;;;;;;4806093;29;20026;-89
2021/11/08 05:54:14;;;;;;;6.72;3.63;;;;;;;;;;4791287;29;20031;-92
2021/11/08 05:57:04;;;;;;;5.05;2.33;;;;;;;;;;4790930;29;20038;-91
2021/11/08 06:49:12;;;;;;;10.23;1.95;;;;;;;;;;4846748;29;20370;-87
2021/11/08 06:51:39;;;;;;;7.97;1.83;;;;;;;;;;4846513;29;20034;-86
2021/11/08 06:54:07;;;;;;;7.45;1.80;;;;;;;;;;4829488;29;20121;-88
2021/11/08 06:56:50;;;;;;;3.88;1.90;;;;;;;;;;4845774;29;20030;-84
2021/11/08 06:59:17;;;;;;;4.65;1.67;;;;;;;;;;4846239;29;20034;-86
2021/11/08 07:01:44;;;;;;;6.90;2.00;;;;;;;;;;4829395;29;20057;-87
2021/11/08 07:04:11;;;;;;;12.63;1.80;;;;;;;;;;4845903;29;20040;-87
2021/11/08 07:06:37;;;;;;;4.90;1.80;;;;;;;;;;4829503;29;20503;-87
2021/11/08 07:09:04;;;;;;;5.20;1.95;;;;;;;;;;4829239;29;20480;-87
2021/11/08 07:11:31;;;;;;;4.75;1.67;;;;;;;;;;4829327;29;20030;-86
2021/11/08 07:13:57;;;;;;;4.18;1.63;;;;;;;;;;4829005;29;20057;-85
2021/11/08 07:16:24;;;;;;;4.38;1.65;;;;;;;;;;4829196;29;20034;-87
2021/11/08 07:18:50;;;;;;;5.45;1.38;;;;;;;;;;4828808;29;20129;-86
2021/11/08 07:21:16;;;;;;;4.28;1.20;;;;;;;;;;4845184;29;20137;-85
2021/11/08 07:23:42;;;;;;;8.18;1.92;;;;;;;;;;4828352;29;20038;-83
2021/11/08 07:26:11;;;;;;;3.83;1.30;;;;;;;;;;4827518;29;20026;-82
2021/11/08 07:28:38;;;;;;;5.13;1.60;;;;;;;;;;4844652;29;20049;-83
2021/11/08 07:31:04;;;;;;;6.07;1.77;;;;;;;;;;4827817;29;20037;-82
2021/11/08 07:33:31;;;;;;;5.63;1.60;;;;;;;;;;4828035;29;20490;-86
2021/11/08 07:35:59;;;;;;;8.82;1.48;;;;;;;;;;4828743;29;20034;-87
2021/11/08 07:38:26;;;;;;;4.93;1.58;;;;;;;;;;4828602;29;20128;-87
2021/11/08 07:40:52;;;;;;;4.18;1.67;;;;;;;;;;4828579;29;20030;-85
2021/11/08 07:43:19;;;;;;;6.55;1.67;;;;;;;;;;4828313;29;20090;-86
2021/11/08 07:45:45;;;;;;;4.05;2.00;;;;;;;;;;4844490;29;20033;-86
2021/11/08 07:48:11;;;;;;;5.03;2.20;;;;;;;;;;4828066;29;20082;-86
2021/11/08 07:50:38;;;;;;;5.63;2.00;;;;;;;;;;4844546;29;20030;-87
2021/11/08 07:53:05;;;;;;;4.53;1.73;;;;;;;;;;4844533;29;20026;-85
2021/11/08 07:55:31;;;;;;;7.28;1.85;;;;;;;;;;4828212;29;20475;-84
2021/11/08 07:58:00;;;;;;;4.97;2.33;;;;;;;;;;4828178;29;20114;-86
2021/11/08 08:00:26;;;;;;;10.45;3.30;;;;;;;;;;4828192;29;20045;-87
2021/11/08 08:02:52;;;;;;;6.15;2.75;;;;;;;;;;4844422;29;20092;-85
2021/11/08 08:05:19;;;;;;;6.10;2.60;;;;;;;;;;4828062;29;20126;-85
2021/11/08 08:07:46;;;;;;;11.38;2.90;;;;;;;;;;4827935;29;20057;-88
2021/11/08 08:10:12;;;;;;;4.03;1.92;;;;;;;;;;4827689;29;20033;-85
2021/11/08 08:12:38;;;;;;;4.80;1.58;;;;;;;;;;4827751;29;20038;-85
2021/11/08 08:15:05;;;;;;;3.78;1.75;;;;;;;;;;4828056;29;20036;-84
2021/11/08 08:17:31;;;;;;;4.05;1.80;;;;;;;;;;4844088;29;20102;-84
2021/11/08 08:19:58;;;;;;;4.45;2.15;;;;;;;;;;4827696;29;20476;-85
2021/11/08 08:22:26;;;;;;;4.90;1.70;;;;;;;;;;4827828;29;20065;-87
2021/11/08 08:24:52;;;;;;;7.90;2.00;;;;;;;;;;4843893;29;20054;-85
2021/11/08 08:27:19;;;;;;;3.08;1.65;;;;;;;;;;4827462;29;20046;-88
2021/11/08 08:29:46;;;;;;;3.30;1.40;;;;;;;;;;4827884;29;20133;-87
2021/11/08 08:32:12;;;;;;;5.05;1.40;;;;;;;;;;4827704;29;20033;-88
2021/11/08 08:34:38;;;;;;;4.18;1.70;;;;;;;;;;4827790;29;20038;-88
2021/11/08 08:37:05;;;;;;;9.13;1.50;;;;;;;;;;4827331;29;20062;-88
2021/11/08 08:39:31;;;;;;;4.78;2.17;;;;;;;;;;4827618;29;20412;-88
2021/11/08 08:41:58;;;;;;;3.92;1.00;;;;;;;;;;4827736;29;20030;-88
2021/11/08 08:44:25;;;;;;;1.85;1.02;;;;;;;;;;4843610;29;20050;-88
2021/11/08 08:46:51;;;;;;;8.68;1.42;;;;;;;;;;4827505;29;20468;-86
2021/11/08 08:49:18;;;;;;;2.78;1.10;;;;;;;;;;4843673;29;20069;-89
2021/11/08 08:51:45;;;;;;;2.17;0.88;;;;;;;;;;4827493;29;20186;-88
2021/11/08 08:54:13;;;;;;;3.15;0.90;;;;;;;;;;4843766;29;20038;-89
2021/11/08 08:56:40;;;;;;;4.03;1.50;;;;;;;;;;4844159;29;20367;-88
2021/11/08 08:59:06;;;;;;;6.13;1.13;;;;;;;;;;4843571;29;20536;-89
2021/11/08 09:01:32;;;;;;;3.00;1.02;;;;;;;;;;4827377;29;20026;-89
2021/11/08 09:03:59;;;;;;;4.25;1.40;;;;;;;;;;4827285;29;20037;-85
2021/11/08 09:06:26;;;;;;;4.28;1.63;;;;;;;;;;4827439;29;20025;-88
2021/11/08 09:08:53;;;;;;;4.63;1.20;;;;;;;;;;4827630;29;20061;-88
2021/11/08 09:11:19;;;;;;;2.60;1.23;;;;;;;;;;4827717;29;20121;-87
2021/11/08 09:13:46;;;;;;;2.42;1.10;;;;;;;;;;4844070;29;20063;-89
2021/11/08 09:16:13;;;;;;;3.67;1.40;;;;;;;;;;4827303;29;20077;-88
2021/11/08 09:18:41;;;;;;;3.33;1.15;;;;;;;;;;4827278;29;20049;-87
2021/11/08 09:21:09;;;;;;;2.97;1.10;;;;;;;;;;4827284;29;20100;-88
2021/11/08 09:23:35;;;;;;;3.58;1.27;;;;;;;;;;4828115;29;20057;-88
2021/11/08 09:26:02;;;;;;;1.95;0.70;;;;;;;;;;4827483;29;20030;-88
2021/11/08 09:28:29;;;;;;;2.28;0.70;;;;;;;;;;4827033;29;20471;-88
2021/11/08 09:30:56;;;;;;;2.00;0.77;;;;;;;;;;4827425;29;20464;-88
2021/11/08 09:33:22;;;;;;;3.05;0.90;;;;;;;;;;4827054;29;20030;-89
2021/11/08 09:35:49;;;;;;;6.93;2.55;;;;;;;;;;4843179;29;20101;-88
2021/11/08 09:38:20;;;;;;;2.30;0.73;;;;;;;;;;4843447;29;20480;-88
2021/11/08 09:40:46;;;;;;;2.60;0.70;;;;;;;;;;4827274;29;20476;-90
2021/11/08 09:43:14;;;;;;;13.35;1.00;;;;;;;;;;4826973;29;20026;-88
2021/11/08 09:45:41;;;;;;;6.95;0.90;;;;;;;;;;4827056;29;20443;-88
2021/11/08 09:48:11;;;;;;;2.63;0.85;;;;;;;;;;4828182;29;20568;-89
2021/11/08 09:50:38;;;;;;;1.60;0.55;;;;;;;;;;4847456;29;20037;-89
2021/11/08 09:53:05;;;;;;;2.72;0.88;;;;;;;;;;4830571;29;20072;-88
2021/11/08 09:55:32;;;;;;;3.22;1.00;;;;;;;;;;4830665;29;20030;-88
2021/11/08 09:57:58;;;;;;;4.13;0.82;;;;;;;;;;4830163;29;20061;-88
2021/11/08 10:00:37;;;;;;;3.80;1.40;;;;;;;;;;4830173;29;20068;-88
2021/11/08 10:03:05;;;;;;;11.38;5.13;;;;;;;;;;4846835;29;20047;-87
2021/11/08 10:05:34;;;;;;;5.90;2.38;;;;;;;;;;4846709;29;20026;-86
2021/11/08 10:08:00;;;;;;;9.52;2.40;;;;;;;;;;4827931;29;20074;-84
2021/11/08 10:10:28;;;;;;;6.82;1.52;;;;;;;;;;4854476;29;20045;-85
2021/11/08 10:12:56;;;;;;;2.33;0.88;;;;;;;;;;4829601;29;20026;-84
2021/11/08 10:15:23;;;;;;;5.32;1.10;;;;;;;;;;4829619;29;20044;-85
2021/11/08 10:17:49;;;;;;;5.32;1.33;;;;;;;;;;4829692;29;20041;-84
2021/11/08 10:20:30;;;;;;;3.85;0.98;;;;;;;;;;4829490;29;20082;-85
2021/11/08 10:22:57;;;;;;;3.72;0.95;;;;;;;;;;4829551;29;20032;-85
2021/11/08 10:25:23;;;;;;;5.18;0.93;;;;;;;;;;4829473;29;20029;-85
2021/11/08 10:27:49;;;;;;;4.45;1.10;;;;;;;;;;4829063;29;20119;-87
2021/11/08 10:30:24;;;;;;;3.33;1.42;;;;;;;;;;4844315;29;20033;-85
2021/11/08 10:33:04;;;;;;;7.57;1.30;;;;;;;;;;4846616;29;20116;-84
2021/11/08 10:35:41;;;;;;;2.38;0.93;;;;;;;;;;4845783;29;20532;-85
2021/11/08 10:38:08;;;;;;;3.03;0.90;;;;;;;;;;4846055;29;20037;-84
2021/11/08 10:40:43;;;;;;;2.95;0.90;;;;;;;;;;4847048;29;20040;-84
2021/11/08 10:43:10;;;;;;;5.13;1.70;;;;;;;;;;4847684;29;20057;-86
2021/11/08 10:45:47;;;;;;;5.22;2.03;;;;;;;;;;4845781;29;20037;-85
2021/11/08 10:48:18;;;;;;;5.82;1.67;;;;;;;;;;4845689;29;20034;-84
2021/11/08 10:50:45;;;;;;;6.32;1.30;;;;;;;;;;4844297;29;20391;-85
2021/11/08 10:53:12;;;;;;;3.25;1.33;;;;;;;;;;4844352;29;20491;-85
2021/11/08 10:55:38;;;;;;;4.70;1.45;;;;;;;;;;4843982;29;20109;-85
2021/11/08 10:58:14;;;;;;;4.70;1.25;;;;;;;;;;4843887;29;20078;-85
2021/11/08 11:00:52;;;;;;;7.35;1.00;;;;;;;;;;4844384;29;20042;-84
2021/11/08 11:03:19;;;;;;;2.28;0.70;;;;;;;;;;4842753;29;20043;-86
2021/11/08 11:05:46;;;;;;;2.75;1.05;;;;;;;;;;4814247;29;20130;-84
2021/11/08 11:08:15;;;;;;;4.22;1.27;;;;;;;;;;4829643;29;20026;-84
2021/11/08 11:10:52;;;;;;;2.92;1.10;;;;;;;;;;4812544;29;20042;-85
2021/11/08 11:13:22;;;;;;;4.32;1.33;;;;;;;;;;4810381;29;20049;-85
2021/11/08 11:15:49;;;;;;;14.57;1.30;;;;;;;;;;4809796;29;20040;-87
2021/11/08 11:18:16;;;;;;;5.38;1.42;;;;;;;;;;4829218;29;20031;-89
2021/11/08 11:20:45;;;;;;;5.70;1.10;;;;;;;;;;4811091;29;20030;-90
2021/11/08 11:23:16;;;;;;;4.80;1.05;;;;;;;;;;4827120;29;20037;-90
2021/11/08 11:25:50;;;;;;;4.93;0.90;;;;;;;;;;4811056;29;20030;-89
2021/11/08 11:28:22;;;;;;;3.17;1.08;;;;;;;;;;4810681;29;20050;-89
2021/11/08 11:30:48;;;;;;;2.50;0.82;;;;;;;;;;4840953;29;20035;-88
2021/11/08 11:33:15;;;;;;;1.77;0.82;;;;;;;;;;4826762;29;20090;-90
2021/11/08 11:35:44;;;;;;;4.78;1.52;;;;;;;;;;4841197;29;20035;-90
2021/11/08 11:38:12;;;;;;;3.85;1.08;;;;;;;;;;4840801;29;20058;-88
2021/11/08 11:40:40;;;;;;;4.18;1.20;;;;;;;;;;4841349;29;20042;-90
2021/11/08 11:43:08;;;;;;;4.07;1.58;;;;;;;;;;4840954;29;20034;-91
2021/11/08 11:45:48;;;;;;;7.75;1.63;;;;;;;;;;4841240;29;20048;-90
2021/11/08 11:48:15;;;;;;;2.83;1.05;;;;;;;;;;4840882;29;20057;-92
2021/11/08 11:50:41;;;;;;;3.97;1.25;;;;;;;;;;4840583;29;20058;-90
2021/11/08 11:53:07;;;;;;;3.75;0.98;;;;;;;;;;4841925;29;20476;-93
2021/11/08 11:55:35;;;;;;;3.75;1.20;;;;;;;;;;4840866;29;20054;-91
2021/11/08 11:58:01;;;;;;;5.20;1.30;;;;;;;;;;4841188;29;20037;-91
2021/11/08 12:00:33;;;;;;;4.50;1.42;;;;;;;;;;4843238;29;20518;-91
2021/11/08 12:03:00;;;;;;;6.50;1.60;;;;;;;;;;4845643;29;20045;-91
2021/11/08 12:05:27;;;;;;;5.10;1.67;;;;;;;;;;4828981;29;20041;-91
2021/11/08 12:07:53;;;;;;;3.97;1.67;;;;;;;;;;4829130;29;20026;-92
2021/11/08 12:10:20;;;;;;;4.10;1.10;;;;;;;;;;4829611;29;20034;-91
2021/11/08 12:12:46;;;;;;;2.72;1.25;;;;;;;;;;4829149;29;20125;-91
2021/11/08 12:15:16;;;;;;;2.15;0.80;;;;;;;;;;4828420;29;20100;-92
2021/11/08 12:17:47;;;;;;;2.90;0.70;;;;;;;;;;4830379;29;20034;-94
2021/11/08 12:20:17;;;;;;;2.75;1.20;;;;;;;;;;4830635;29;20042;-88
2021/11/08 12:22:43;;;;;;;3.47;1.02;;;;;;;;;;4828769;29;20112;-89
2021/11/08 12:25:12;;;;;;;3.33;0.85;;;;;;;;;;4829375;29;20057;-90
2021/11/08 12:27:41;;;;;;;3.95;1.38;;;;;;;;;;4828635;29;20114;-89
2021/11/08 12:30:13;;;;;;;6.85;1.55;;;;;;;;;;4824854;29;20034;-89
2021/11/08 12:32:52;;;;;;;5.60;1.30;;;;;;;;;;4841835;29;20022;-91
2021/11/08 12:35:39;;;;;;;3.85;1.05;;;;;;;;;;4844173;29;20040;-91
2021/11/08 12:38:17;;;;;;;3.03;1.10;;;;;;;;;;4840744;29;20041;-91
2021/11/08 12:40:43;;;;;;;3.80;1.60;;;;;;;;;;4829466;29;20031;-90
2021/11/08 12:43:09;;;;;;;4.18;1.33;;;;;;;;;;4842936;29;20030;-89
2021/11/08 12:45:40;;;;;;;5.70;1.35;;;;;;;;;;4845251;29;20026;-89
2021/11/08 12:48:11;;;;;;;4.68;1.02;;;;;;;;;;4843098;29;20030;-88
2021/11/08 12:50:43;;;;;;;2.40;0.90;;;;;;;;;;4824174;29;20062;-88
2021/11/08 12:53:31;;;;;;;4.60;0.95;;;;;;;;;;4836572;29;20056;-88
2021/11/08 12:55:58;;;;;;;3.97;1.20;;;;;;;;;;4820884;29;20042;-88
2021/11/08 12:58:35;;;;;;;2.83;0.82;;;;;;;;;;4836115;29;20121;-88
2021/11/08 13:01:03;;;;;;;3.80;1.40;;;;;;;;;;4819564;29;20412;-90
2021/11/08 13:03:35;;;;;;;3.72;0.95;;;;;;;;;;4826898;29;20134;-90
2021/11/08 13:06:04;;;;;;;1.65;0.45;;;;;;;;;;4838862;29;20061;-89
2021/11/08 13:08:30;;;;;;;6.85;0.90;;;;;;;;;;4832002;29;20037;-91
2021/11/08 13:10:58;;;;;;;3.50;0.82;;;;;;;;;;4825099;29;20043;-89
2021/11/08 13:13:25;;;;;;;3.63;0.82;;;;;;;;;;4821576;29;20039;-91
2021/11/08 13:15:51;;;;;;;5.93;1.23;;;;;;;;;;4817915;29;20026;-90
2021/11/08 13:18:19;;;;;;;1.77;0.70;;;;;;;;;;4818334;29;20046;-88
2021/11/08 13:20:47;;;;;;;3.58;0.90;;;;;;;;;;4796701;29;20102;-91
2021/11/08 13:23:18;;;;;;;7.72;1.05;;;;;;;;;;4812623;29;20453;-89
2021/11/08 13:25:56;;;;;;;2.75;0.85;;;;;;;;;;4817320;29;20075;-92
2021/11/08 13:28:24;;;;;;;4.25;0.70;;;;;;;;;;4812187;29;20126;-91
2021/11/08 13:30:52;;;;;;;4.45;1.33;;;;;;;;;;4821899;29;20026;-89
2021/11/08 13:33:20;;;;;;;4.10;0.70;;;;;;;;;;4823011;29;20038;-89
2021/11/08 13:35:47;;;;;;;5.72;1.17;;;;;;;;;;4833365;29;20038;-88
2021/11/08 13:38:26;;;;;;;2.35;0.70;;;;;;;;;;4853508;29;20030;-91
2021/11/08 13:40:54;;;;;;;3.97;0.88;;;;;;;;;;4836906;29;20038;-93
2021/11/08 13:43:26;;;;;;;2.28;0.60;;;;;;;;;;4835528;29;20094;-90
2021/11/08 13:46:03;;;;;;;6.78;2.08;;;;;;;;;;4837296;29;20038;-93
2021/11/08 13:48:31;;;;;;;6.00;1.30;;;;;;;;;;4835620;29;20037;-90
2021/11/08 13:51:02;;;;;;;3.22;0.95;;;;;;;;;;4835507;29;20404;-94
2021/11/08 13:53:32;;;;;;;3.55;1.20;;;;;;;;;;4836160;29;20058;-93
2021/11/08 13:56:00;;;;;;;5.28;1.20;;;;;;;;;;4834144;29;20116;-88
2021/11/08 13:58:29;;;;;;;2.83;1.10;;;;;;;;;;4833061;29;20068;-90
2021/11/08 14:01:02;;;;;;;3.28;1.08;;;;;;;;;;4831092;29;20030;-91
2021/11/08 14:03:36;;;;;;;3.58;1.08;;;;;;;;;;4831385;29;20166;-90
2021/11/08 14:06:03;;;;;;;2.97;0.80;;;;;;;;;;4831944;29;20093;-90
2021/11/08 14:08:29;;;;;;;4.68;0.90;;;;;;;;;;4829276;29;20030;-92
2021/11/08 14:10:58;;;;;;;10.27;1.50;;;;;;;;;;4846910;29;20044;-87
2021/11/08 14:13:32;;;;;;;8.15;1.05;;;;;;;;;;4830463;29;20110;-93
2021/11/08 14:16:00;;;;;;;9.20;1.33;;;;;;;;;;4830719;29;20133;-88
2021/11/08 14:18:26;;;;;;;8.88;1.38;;;;;;;;;;4830174;29;20034;-90
2021/11/08 14:21:04;;;;;;;6.15;1.17;;;;;;;;;;4845694;29;20113;-94
2021/11/08 14:23:31;;;;;;;4.68;1.02;;;;;;;;;;4830644;29;20026;-93
2021/11/08 14:26:07;;;;;;;5.40;1.17;;;;;;;;;;4830643;29;20599;-93
2021/11/08 14:28:35;;;;;;;3.45;1.13;;;;;;;;;;4830825;29;20050;-88
2021/11/08 14:31:05;;;;;;;3.80;0.90;;;;;;;;;;4832250;29;20065;-91
2021/11/08 14:33:31;;;;;;;2.45;0.98;;;;;;;;;;4831664;29;20033;-91
2021/11/08 14:36:02;;;;;;;4.20;1.20;;;;;;;;;;4847769;29;20058;-89
2021/11/08 14:38:36;;;;;;;5.72;1.25;;;;;;;;;;4832365;29;20038;-92
2021/11/08 14:41:09;;;;;;;5.45;1.27;;;;;;;;;;4832356;29;20026;-93
2021/11/08 14:43:36;;;;;;;5.88;1.42;;;;;;;;;;4831595;29;20472;-89
2021/11/08 14:46:03;;;;;;;3.72;1.17;;;;;;;;;;4831197;29;20069;-92
2021/11/08 14:48:31;;;;;;;2.97;1.00;;;;;;;;;;4830864;29;20483;-93
2021/11/08 14:51:07;;;;;;;3.03;0.88;;;;;;;;;;4832253;29;20246;-91
2021/11/08 14:53:35;;;;;;;3.88;1.10;;;;;;;;;;4830889;29;20041;-92
2021/11/08 14:56:05;;;;;;;6.55;2.00;;;;;;;;;;4952085;24;20049;-90
2021/11/08 14:58:31;;;;;;;4.90;1.17;;;;;;;;;;4850202;29;20045;-90
2021/11/08 15:00:58;;;;;;;5.53;1.30;;;;;;;;;;4848901;29;20033;-94
2021/11/08 15:03:24;;;;;;;3.45;1.27;;;;;;;;;;4848938;29;20057;-89
2021/11/08 15:05:51;;;;;;;1.83;0.80;;;;;;;;;;4848352;29;20038;-94
2021/11/08 15:08:22;;;;;;;5.63;1.08;;;;;;;;;;4865116;29;20033;-94
2021/11/08 15:11:12;;;;;;;7.60;1.13;;;;;;;;;;4850063;29;20030;-94
2021/11/08 15:13:39;;;;;;;3.75;0.88;;;;;;;;;;4867305;29;20044;-95
2021/11/08 15:16:06;;;;;;;2.65;0.88;;;;;;;;;;4849900;29;20471;-92
2021/11/08 15:18:33;;;;;;;3.83;0.98;;;;;;;;;;4849257;29;20494;-93
2021/11/08 15:21:04;;;;;;;3.42;1.35;;;;;;;;;;4865520;29;20175;-93
2021/11/08 15:23:38;;;;;;;3.45;1.23;;;;;;;;;;4840762;29;20033;-96
2021/11/08 15:26:06;;;;;;;5.47;1.92;;;;;;;;;;4865973;29;20029;-92
2021/11/08 15:28:38;;;;;;;6.35;2.25;;;;;;;;;;4832947;29;20080;-93
2021/11/08 15:31:12;;;;;;;2.85;1.50;;;;;;;;;;4849402;29;20048;-95
2021/11/08 15:33:45;;;;;;;6.45;1.55;;;;;;;;;;4849278;29;20043;-95
2021/11/08 15:36:21;;;;;;;3.15;1.23;;;;;;;;;;4850158;29;20034;-92
2021/11/08 15:38:49;;;;;;;3.53;1.48;;;;;;;;;;4851506;29;20456;-95
2021/11/08 15:41:20;;;;;;;4.88;1.95;;;;;;;;;;4868185;29;20383;-94
2021/11/08 15:44:11;;;;;;;4.68;1.60;;;;;;;;;;4852378;29;20041;-95
2021/11/08 15:46:39;;;;;;;4.35;1.52;;;;;;;;;;4835893;29;20040;-93
2021/11/08 15:49:10;;;;;;;7.95;1.70;;;;;;;;;;4868345;29;20057;-95
2021/11/08 15:52:01;;;;;;;3.85;1.40;;;;;;;;;;4852758;29;20037;-93
2021/11/08 15:54:34;;;;;;;7.95;1.67;;;;;;;;;;4856112;29;20033;-94
2021/11/08 15:57:32;;;;;;;7.25;1.90;;;;;;;;;;4859389;29;20499;-96
2021/11/08 16:00:06;;;;;;;13.13;1.73;;;;;;;;;;4873951;29;20072;-94
2021/11/08 16:03:15;;;;;;;9.00;1.75;;;;;;;;;;4875109;29;20044;-95
2021/11/08 16:06:11;;;;;;;6.10;1.73;;;;;;;;;;4877135;29;20038;-95
2021/11/08 16:09:10;;;;;;;7.90;2.05;;;;;;;;;;4862463;29;20044;-95
2021/11/08 16:12:09;;;;;;;5.38;1.65;;;;;;;;;;4877832;29;20044;-92
2021/11/08 16:15:26;;;;;;;4.65;1.95;;;;;;;;;;4823321;29;20031;-96
2021/11/08 16:18:01;;;;;;;11.48;2.60;;;;;;;;;;4812517;29;20172;-96
2021/11/08 16:20:41;;;;;;;7.07;1.88;;;;;;;;;;4817894;29;20043;-96
2021/11/08 16:23:14;;;;;;;3.65;1.73;;;;;;;;;;4817322;29;20058;-94
2021/11/08 16:25:44;;;;;;;8.73;3.33;;;;;;;;;;4823103;29;20041;-94
2021/11/08 16:28:32;;;;;;;10.52;2.10;;;;;;;;;;4868561;29;20049;-96
2021/11/08 16:30:59;;;;;;;4.45;1.80;;;;;;;;;;4854139;29;20117;-95
2021/11/08 16:33:44;;;;;;;14.35;3.53;;;;;;;;;;4873925;29;20568;-96
2021/11/08 16:36:14;;;;;;;9.30;2.50;;;;;;;;;;4861394;29;20065;-95